Time;durP1;ratioP1;P1;durP2;ratioP2;P2;SDS_P1;SDS_P2;PMS_P1;PMS_P2;Temp;Humidity;BMP_temperature;BMP_pressure;BME280_temperature;BME280_humidity;BME280_pressure;Samples;Min_cycle;Max_cycle;Signal;HPM_P1;HPM_P2
2023/06/27 00:01:08;;;;;;;9.65;3.55;;;16.30;98.70;;;;;;5083661;28;20056;-61
2023/06/27 00:03:34;;;;;;;6.85;3.47;;;16.30;98.80;;;;;;5073473;28;20047;-61
2023/06/27 00:06:00;;;;;;;6.72;3.40;;;16.30;98.90;;;;;;5089114;28;20059;-61
2023/06/27 00:08:29;;;;;;;9.13;3.67;;;16.30;99.10;;;;;;5084051;28;20044;-62
2023/06/27 00:10:55;;;;;;;6.25;3.47;;;16.40;99.00;;;;;;5062762;28;20061;-61
2023/06/27 00:13:21;;;;;;;6.10;3.25;;;16.40;99.00;;;;;;5086850;28;20036;-61
2023/06/27 00:15:52;;;;;;;7.20;3.97;;;16.40;99.00;;;;;;5089138;28;20101;-61
2023/06/27 00:18:21;;;;;;;5.05;3.80;;;16.30;99.00;;;;;;5065379;28;20138;-61
2023/06/27 00:20:51;;;;;;;6.53;3.00;;;16.30;99.00;;;;;;5076363;28;20138;-61
2023/06/27 00:23:24;;;;;;;5.03;3.28;;;16.20;99.10;;;;;;5071341;28;20040;-61
2023/06/27 00:25:50;;;;;;;6.38;3.30;;;16.30;99.30;;;;;;5079440;28;20042;-61
2023/06/27 00:28:16;;;;;;;6.82;3.05;;;16.30;99.30;;;;;;5082808;28;20442;-61
2023/06/27 00:30:41;;;;;;;7.82;3.65;;;16.20;99.20;;;;;;5065179;28;20119;-61
2023/06/27 00:33:11;;;;;;;9.88;3.80;;;16.30;99.30;;;;;;5091033;28;20040;-61
2023/06/27 00:35:40;;;;;;;7.18;3.25;;;16.20;99.20;;;;;;5079007;28;20072;-61
2023/06/27 00:38:06;;;;;;;7.28;3.58;;;16.20;99.40;;;;;;5077074;28;20086;-62
2023/06/27 00:40:32;;;;;;;9.02;3.80;;;16.20;99.30;;;;;;5068465;28;20048;-60
2023/06/27 00:42:57;;;;;;;6.10;3.25;;;16.10;99.30;;;;;;5087703;28;20085;-61
2023/06/27 00:45:26;;;;;;;5.88;3.30;;;16.10;99.40;;;;;;5067358;28;20437;-61
2023/06/27 00:48:00;;;;;;;6.20;3.83;;;16.10;99.50;;;;;;5071549;28;20127;-61
2023/06/27 00:50:30;;;;;;;6.53;2.83;;;16.00;99.50;;;;;;5084830;28;20044;-61
2023/06/27 00:52:58;;;;;;;3.45;2.30;;;16.00;99.50;;;;;;5069236;28;20047;-61
2023/06/27 00:55:23;;;;;;;5.65;3.08;;;16.00;99.70;;;;;;5067473;28;20126;-61
2023/06/27 00:57:50;;;;;;;9.02;3.22;;;16.00;99.60;;;;;;5068216;28;20112;-62
2023/06/27 01:00:16;;;;;;;5.97;3.00;;;16.00;99.60;;;;;;5066093;28;20375;-61
2023/06/27 01:02:45;;;;;;;10.55;4.07;;;15.90;99.60;;;;;;5089307;28;20511;-61
2023/06/27 01:05:13;;;;;;;8.75;3.75;;;16.00;99.60;;;;;;5087551;28;20056;-62
2023/06/27 01:07:52;;;;;;;4.30;2.88;;;15.90;99.60;;;;;;5084955;28;20399;-62
2023/06/27 01:10:36;;;;;;;7.65;3.65;;;15.90;99.60;;;;;;5067080;28;20051;-61
2023/06/27 01:13:11;;;;;;;11.70;3.40;;;15.90;99.70;;;;;;5086541;28;20128;-62
2023/06/27 01:15:38;;;;;;;9.50;3.78;;;15.90;99.70;;;;;;5062212;28;20056;-62
2023/06/27 01:18:08;;;;;;;4.93;3.40;;;15.90;99.60;;;;;;5072054;28;20048;-62
2023/06/27 01:20:35;;;;;;;5.05;2.85;;;15.80;99.60;;;;;;5086711;28;20032;-61
2023/06/27 01:23:01;;;;;;;7.22;3.42;;;15.80;99.70;;;;;;5095642;28;20031;-62
2023/06/27 01:25:30;;;;;;;6.65;3.10;;;15.80;99.80;;;;;;5070218;28;20072;-62
2023/06/27 01:27:56;;;;;;;8.43;3.22;;;15.80;99.80;;;;;;5075430;28;20040;-60
2023/06/27 01:30:21;;;;;;;6.75;3.60;;;15.80;99.80;;;;;;5069013;28;20046;-61
2023/06/27 01:32:53;;;;;;;9.07;3.60;;;15.70;99.80;;;;;;5067138;28;20139;-61
2023/06/27 01:35:23;;;;;;;5.75;3.13;;;15.70;99.80;;;;;;5067560;28;20060;-61
2023/06/27 01:37:55;;;;;;;6.82;3.20;;;15.70;99.90;;;;;;5063371;28;20484;-61
2023/06/27 01:40:27;;;;;;;7.85;3.35;;;15.60;99.90;;;;;;5086345;28;20044;-61
2023/06/27 01:43:01;;;;;;;6.53;3.38;;;15.50;99.90;;;;;;5062806;28;20043;-61
2023/06/27 01:45:28;;;;;;;6.60;3.22;;;15.50;99.90;;;;;;5077114;28;20044;-61
2023/06/27 01:47:54;;;;;;;5.80;3.03;;;15.40;99.90;;;;;;5065353;28;20040;-61
2023/06/27 01:50:20;;;;;;;6.10;2.42;;;15.40;99.90;;;;;;5059821;28;20045;-61
2023/06/27 01:52:46;;;;;;;4.65;2.97;;;15.30;99.90;;;;;;5069634;28;20129;-61
2023/06/27 01:55:12;;;;;;;5.38;2.40;;;15.40;99.90;;;;;;5071486;28;20040;-61
2023/06/27 01:57:38;;;;;;;5.70;3.05;;;15.40;99.90;;;;;;5089564;28;20123;-61
2023/06/27 02:00:06;;;;;;;6.47;3.15;;;15.30;99.90;;;;;;5065357;28;20040;-61
2023/06/27 02:02:32;;;;;;;5.45;2.92;;;15.30;99.90;;;;;;5067103;28;20067;-62
2023/06/27 02:04:58;;;;;;;5.93;2.83;;;15.30;99.90;;;;;;5068147;28;20461;-61
2023/06/27 02:07:23;;;;;;;5.97;2.97;;;15.30;99.90;;;;;;5064698;28;20055;-61
2023/06/27 02:09:52;;;;;;;5.28;3.53;;;15.40;99.90;;;;;;5083398;28;20059;-61
2023/06/27 02:12:18;;;;;;;7.47;3.08;;;15.40;99.90;;;;;;5068314;28;20123;-61
2023/06/27 02:14:44;;;;;;;8.15;3.17;;;15.40;99.90;;;;;;5053086;28;20119;-61
2023/06/27 02:17:10;;;;;;;7.22;3.22;;;15.40;99.90;;;;;;5074787;28;20024;-61
2023/06/27 02:19:36;;;;;;;5.72;3.13;;;15.30;99.90;;;;;;5061736;28;20571;-61
2023/06/27 02:22:02;;;;;;;5.95;2.35;;;15.30;99.90;;;;;;5062402;28;20032;-62
2023/06/27 02:24:28;;;;;;;7.68;3.40;;;15.30;99.90;;;;;;5063185;28;20081;-61
2023/06/27 02:26:54;;;;;;;5.22;3.13;;;15.30;99.90;;;;;;5084678;28;20048;-61
2023/06/27 02:29:20;;;;;;;6.80;2.30;;;15.30;99.90;;;;;;5067468;28;20048;-61
2023/06/27 02:31:45;;;;;;;5.97;3.05;;;15.30;99.90;;;;;;5067668;28;20040;-61
2023/06/27 02:34:11;;;;;;;7.93;2.50;;;15.20;99.90;;;;;;5081222;28;20105;-61
2023/06/27 02:36:37;;;;;;;5.78;2.70;;;15.20;99.90;;;;;;5087428;28;20034;-61
2023/06/27 02:39:03;;;;;;;4.75;2.30;;;15.30;99.90;;;;;;5084995;28;20036;-62
2023/06/27 02:41:29;;;;;;;6.50;3.03;;;15.30;99.90;;;;;;5065760;28;20043;-61
2023/06/27 02:43:54;;;;;;;14.45;2.55;;;15.30;99.90;;;;;;5064989;28;20043;-61
2023/06/27 02:46:20;;;;;;;5.22;2.75;;;15.30;99.90;;;;;;5074965;28;20040;-61
2023/06/27 02:48:46;;;;;;;6.38;2.45;;;15.20;99.90;;;;;;5065442;28;20124;-61
2023/06/27 02:51:12;;;;;;;7.65;2.92;;;15.20;99.90;;;;;;5082111;28;20383;-61
2023/06/27 02:53:38;;;;;;;9.95;4.15;;;15.20;99.90;;;;;;5050365;28;20055;-61
2023/06/27 02:56:04;;;;;;;7.40;3.22;;;15.20;99.90;;;;;;5045947;28;20112;-60
2023/06/27 02:58:30;;;;;;;5.35;2.90;;;15.20;99.90;;;;;;5080216;28;20627;-61
2023/06/27 03:00:58;;;;;;;9.05;2.75;;;15.20;99.90;;;;;;5063417;28;20040;-61
2023/06/27 03:03:25;;;;;;;8.57;3.35;;;15.20;99.90;;;;;;5069049;28;20044;-61
2023/06/27 03:05:51;;;;;;;8.35;2.50;;;15.20;99.90;;;;;;5082044;28;20514;-61
2023/06/27 03:08:16;;;;;;;7.40;2.92;;;15.20;99.90;;;;;;5078068;28;20043;-61
2023/06/27 03:10:45;;;;;;;7.18;3.10;;;15.20;99.90;;;;;;5063855;28;20515;-61
2023/06/27 03:13:11;;;;;;;7.90;3.05;;;15.20;99.90;;;;;;5063057;28;20040;-61
2023/06/27 03:15:37;;;;;;;5.40;2.20;;;15.20;99.90;;;;;;5064608;28;20376;-61
2023/06/27 03:18:02;;;;;;;7.28;3.15;;;15.20;99.90;;;;;;5049822;28;20410;-61
2023/06/27 03:20:28;;;;;;;6.07;3.30;;;15.20;99.90;;;;;;5066055;28;20060;-61
2023/06/27 03:22:54;;;;;;;6.38;2.30;;;15.20;99.90;;;;;;5084200;28;20048;-61
2023/06/27 03:25:20;;;;;;;6.65;3.05;;;15.20;99.90;;;;;;5079582;28;20433;-62
2023/06/27 03:27:48;;;;;;;12.20;2.53;;;15.30;99.90;;;;;;5064946;28;20037;-61
2023/06/27 03:30:14;;;;;;;6.15;2.50;;;15.30;99.90;;;;;;5077825;28;20626;-61
2023/06/27 03:32:39;;;;;;;5.15;2.65;;;15.30;99.90;;;;;;5047738;28;20057;-61
2023/06/27 03:35:06;;;;;;;5.13;2.38;;;15.30;99.90;;;;;;5066309;28;20499;-61
2023/06/27 03:37:33;;;;;;;6.55;2.53;;;15.30;99.90;;;;;;5081063;28;20116;-60
2023/06/27 03:40:00;;;;;;;6.90;2.60;;;15.40;99.90;;;;;;5065801;28;20119;-61
2023/06/27 03:42:25;;;;;;;5.20;2.85;;;15.40;99.90;;;;;;5088078;28;20043;-61
2023/06/27 03:44:51;;;;;;;5.68;2.40;;;15.40;99.90;;;;;;5068122;28;20044;-61
2023/06/27 03:47:17;;;;;;;6.25;2.60;;;15.40;99.90;;;;;;5068622;28;20078;-61
2023/06/27 03:49:43;;;;;;;5.45;2.55;;;15.40;99.90;;;;;;5075371;28;20084;-61
2023/06/27 03:52:12;;;;;;;6.00;2.83;;;15.40;99.90;;;;;;5046210;28;20126;-62
2023/06/27 03:54:38;;;;;;;8.23;2.97;;;15.40;99.90;;;;;;5069222;28;20616;-61
2023/06/27 03:57:04;;;;;;;5.47;2.50;;;15.30;99.90;;;;;;5064309;28;20044;-62
2023/06/27 03:59:30;;;;;;;9.27;3.40;;;15.30;99.90;;;;;;5060962;28;20119;-61
2023/06/27 04:01:56;;;;;;;9.57;3.20;;;15.30;99.90;;;;;;5068559;28;20044;-61
2023/06/27 04:04:21;;;;;;;7.40;3.35;;;15.30;99.90;;;;;;5065069;28;20070;-61
2023/06/27 04:06:47;;;;;;;6.40;2.63;;;15.30;99.90;;;;;;5079007;28;20062;-61
2023/06/27 04:09:13;;;;;;;5.88;2.70;;;15.30;99.90;;;;;;5087346;28;20048;-61
2023/06/27 04:11:38;;;;;;;7.80;3.70;;;15.30;99.90;;;;;;5072853;28;20109;-61
2023/06/27 04:14:04;;;;;;;7.20;2.60;;;15.30;99.90;;;;;;5087031;28;20044;-61
2023/06/27 04:16:30;;;;;;;6.75;3.00;;;15.20;99.90;;;;;;5072494;28;20040;-61
2023/06/27 04:18:56;;;;;;;6.80;2.92;;;15.20;99.90;;;;;;5065906;28;20066;-61
2023/06/27 04:21:22;;;;;;;4.78;2.90;;;15.40;99.90;;;;;;5090125;28;20044;-61
2023/06/27 04:23:49;;;;;;;10.50;3.50;;;15.40;99.90;;;;;;5069715;28;20117;-61
2023/06/27 04:26:15;;;;;;;6.38;3.15;;;15.40;99.90;;;;;;5083087;28;20127;-61
2023/06/27 04:28:46;;;;;;;8.23;3.10;;;15.40;99.90;;;;;;5086184;28;20036;-61
2023/06/27 04:31:13;;;;;;;5.03;3.03;;;15.30;99.90;;;;;;5086391;28;20036;-61
2023/06/27 04:33:42;;;;;;;6.00;3.08;;;15.30;99.90;;;;;;5070591;28;20036;-61
2023/06/27 04:36:08;;;;;;;4.10;2.72;;;15.30;99.90;;;;;;5062319;28;20078;-61
2023/06/27 04:38:39;;;;;;;8.98;2.80;;;15.40;99.90;;;;;;5088886;28;20068;-61
2023/06/27 04:41:09;;;;;;;6.53;2.42;;;15.50;99.90;;;;;;5070627;28;20064;-61
2023/06/27 04:43:36;;;;;;;7.93;2.70;;;15.60;99.90;;;;;;5054116;28;20097;-61
2023/06/27 04:46:02;;;;;;;8.68;2.95;;;15.70;99.90;;;;;;5073321;28;20111;-61
2023/06/27 04:48:28;;;;;;;6.05;3.03;;;15.70;99.90;;;;;;5090029;28;20032;-61
2023/06/27 04:50:57;;;;;;;8.77;2.53;;;15.80;99.90;;;;;;5090797;28;20064;-61
2023/06/27 04:53:24;;;;;;;5.00;2.30;;;15.80;99.90;;;;;;5087036;28;20491;-61
2023/06/27 04:55:50;;;;;;;6.32;2.60;;;15.90;99.90;;;;;;5098230;28;20044;-61
2023/06/27 04:58:16;;;;;;;7.53;2.50;;;15.90;99.90;;;;;;5085581;28;20119;-61
2023/06/27 05:00:44;;;;;;;8.55;2.78;;;15.90;99.90;;;;;;5068881;28;20064;-60
2023/06/27 05:03:13;;;;;;;7.57;2.10;;;16.00;99.90;;;;;;5062625;28;20111;-61
2023/06/27 05:05:39;;;;;;;6.65;2.40;;;16.10;99.90;;;;;;5068575;28;20398;-62
2023/06/27 05:08:05;;;;;;;6.68;2.40;;;16.10;99.90;;;;;;5070222;28;20044;-61
2023/06/27 05:10:31;;;;;;;8.18;2.28;;;16.20;99.90;;;;;;5066238;28;20047;-62
2023/06/27 05:12:58;;;;;;;5.90;2.20;;;16.30;99.90;;;;;;5090450;28;20086;-61
2023/06/27 05:15:24;;;;;;;5.93;2.50;;;16.40;99.90;;;;;;5073474;28;20391;-62
2023/06/27 05:18:14;;;;;;;4.38;2.22;;;16.40;99.90;;;;;;5088467;28;20490;-62
2023/06/27 05:20:42;;;;;;;7.65;2.65;;;16.50;99.90;;;;;;5084258;28;20248;-61
2023/06/27 05:23:14;;;;;;;11.38;2.90;;;16.70;99.90;;;;;;5078061;28;20040;-61
2023/06/27 05:25:40;;;;;;;9.43;2.38;;;16.70;99.90;;;;;;5067980;28;20093;-61
2023/06/27 05:28:06;;;;;;;8.80;2.83;;;16.80;99.90;;;;;;5088956;28;20048;-61
2023/06/27 05:30:32;;;;;;;7.75;2.60;;;16.90;99.90;;;;;;5070834;28;20036;-61
2023/06/27 05:32:58;;;;;;;7.28;2.30;;;17.00;99.90;;;;;;5087786;28;20690;-61
2023/06/27 05:35:27;;;;;;;7.63;2.53;;;17.10;99.90;;;;;;5088925;28;20043;-61
2023/06/27 05:37:53;;;;;;;10.43;2.63;;;17.20;99.90;;;;;;5077804;28;20047;-61
2023/06/27 05:40:18;;;;;;;8.35;2.55;;;17.30;99.90;;;;;;5066809;28;20032;-60
2023/06/27 05:42:44;;;;;;;12.32;2.92;;;17.30;99.90;;;;;;5070199;28;20044;-62
2023/06/27 05:45:10;;;;;;;6.88;2.28;;;17.40;99.90;;;;;;5069613;28;20058;-62
2023/06/27 05:47:36;;;;;;;9.18;2.10;;;17.50;99.90;;;;;;5067087;28;20063;-62
2023/06/27 05:50:02;;;;;;;6.75;1.80;;;17.60;99.90;;;;;;5089164;28;20065;-61
2023/06/27 05:52:29;;;;;;;9.60;2.55;;;17.60;99.90;;;;;;5086683;28;20044;-61
2023/06/27 05:54:55;;;;;;;8.73;2.80;;;17.80;99.90;;;;;;5083392;28;20112;-61
2023/06/27 05:57:22;;;;;;;6.38;1.88;;;17.80;99.90;;;;;;5090479;28;20036;-62
2023/06/27 05:59:48;;;;;;;6.32;1.75;;;17.90;99.90;;;;;;5075339;28;20514;-62
2023/06/27 06:02:14;;;;;;;7.32;1.80;;;18.00;99.90;;;;;;5064678;28;20041;-64
2023/06/27 06:04:40;;;;;;;6.63;2.13;;;18.10;99.90;;;;;;5044594;28;20522;-61
2023/06/27 06:07:06;;;;;;;8.65;1.98;;;18.10;99.90;;;;;;5055734;28;20076;-61
2023/06/27 06:09:32;;;;;;;6.38;1.77;;;18.30;99.90;;;;;;5063468;28;20043;-61
2023/06/27 06:11:58;;;;;;;7.80;1.42;;;18.40;99.90;;;;;;5049534;28;20033;-61
2023/06/27 06:14:24;;;;;;;7.43;1.92;;;18.50;99.90;;;;;;5085683;28;20092;-61
2023/06/27 06:16:49;;;;;;;6.35;1.70;;;18.60;99.90;;;;;;5084457;28;20543;-61
2023/06/27 06:19:15;;;;;;;7.13;1.75;;;18.70;99.90;;;;;;5060146;28;20048;-61
2023/06/27 06:21:41;;;;;;;7.05;1.52;;;18.70;99.90;;;;;;5082673;28;20036;-61
2023/06/27 06:24:10;;;;;;;7.72;2.10;;;18.80;99.90;;;;;;5089743;28;20532;-61
2023/06/27 06:26:36;;;;;;;5.32;1.50;;;18.80;99.00;;;;;;5051567;28;20047;-61
2023/06/27 06:29:03;;;;;;;6.00;1.30;;;18.90;99.40;;;;;;5087024;28;20047;-61
2023/06/27 06:31:29;;;;;;;4.88;1.35;;;19.00;99.20;;;;;;5083627;28;20035;-61
2023/06/27 06:33:56;;;;;;;6.40;1.42;;;19.10;99.00;;;;;;5080632;28;20039;-62
2023/06/27 06:36:22;;;;;;;9.32;1.80;;;19.30;98.80;;;;;;5084421;28;20410;-61
2023/06/27 06:38:48;;;;;;;6.10;1.70;;;19.40;98.40;;;;;;5058988;28;20391;-61
2023/06/27 06:41:14;;;;;;;4.07;1.52;;;19.50;98.20;;;;;;5065592;28;20039;-62
2023/06/27 06:43:40;;;;;;;7.75;1.48;;;19.60;97.20;;;;;;5049565;28;20067;-61
2023/06/27 06:46:05;;;;;;;7.80;1.67;;;19.50;97.00;;;;;;5065954;28;20460;-61
2023/06/27 06:48:31;;;;;;;7.90;1.83;;;19.60;96.90;;;;;;5064661;28;20064;-61
2023/06/27 06:50:57;;;;;;;7.45;1.40;;;19.50;96.80;;;;;;5068310;28;20040;-62
2023/06/27 06:53:23;;;;;;;4.38;1.40;;;19.60;97.30;;;;;;5083942;28;20033;-62
2023/06/27 06:55:48;;;;;;;6.82;1.40;;;19.60;97.00;;;;;;5074332;28;20527;-61
2023/06/27 06:58:14;;;;;;;3.85;1.10;;;19.60;96.60;;;;;;5084131;28;20084;-61
2023/06/27 07:00:40;;;;;;;5.15;1.10;;;19.70;96.00;;;;;;5086451;28;20032;-62
2023/06/27 07:03:09;;;;;;;5.50;1.95;;;19.70;95.70;;;;;;5071413;28;20584;-61
2023/06/27 07:05:35;;;;;;;6.55;1.40;;;19.70;96.00;;;;;;5081179;28;20546;-61
2023/06/27 07:08:06;;;;;;;6.25;1.65;;;19.50;95.00;;;;;;5068420;28;20380;-61
2023/06/27 07:10:32;;;;;;;4.38;1.17;;;19.40;95.70;;;;;;5085821;28;20113;-61
2023/06/27 07:12:59;;;;;;;4.20;1.27;;;19.50;96.30;;;;;;5088652;28;20040;-61
2023/06/27 07:15:26;;;;;;;5.85;1.20;;;19.60;96.40;;;;;;5087135;28;20375;-62
2023/06/27 07:17:52;;;;;;;4.75;1.45;;;19.70;95.80;;;;;;5070400;28;20085;-61
2023/06/27 07:20:20;;;;;;;4.18;1.10;;;19.70;95.30;;;;;;5063609;28;20078;-61
2023/06/27 07:22:46;;;;;;;4.95;1.10;;;19.80;94.70;;;;;;5067579;28;20592;-62
2023/06/27 07:25:12;;;;;;;7.38;1.42;;;19.80;95.20;;;;;;5089892;28;20124;-61
2023/06/27 07:27:38;;;;;;;6.07;1.58;;;19.70;95.00;;;;;;5084588;28;20143;-61
2023/06/27 07:30:04;;;;;;;4.88;1.17;;;19.70;95.10;;;;;;5071207;28;20048;-61
2023/06/27 07:32:30;;;;;;;5.90;1.40;;;19.70;94.80;;;;;;5084808;28;20529;-62
2023/06/27 07:34:55;;;;;;;5.65;1.52;;;19.50;94.70;;;;;;5060198;28;20041;-62
2023/06/27 07:37:21;;;;;;;4.70;1.20;;;19.60;95.30;;;;;;5071057;28;20437;-62
2023/06/27 07:39:47;;;;;;;6.00;1.10;;;19.70;95.10;;;;;;5102644;28;20038;-62
2023/06/27 07:42:13;;;;;;;5.82;1.35;;;19.80;95.10;;;;;;5101234;28;20402;-62
2023/06/27 07:44:38;;;;;;;5.60;1.27;;;19.70;94.90;;;;;;5092886;28;20042;-62
2023/06/27 07:47:04;;;;;;;6.70;1.38;;;19.70;95.00;;;;;;5073454;28;20044;-62
2023/06/27 07:49:33;;;;;;;6.97;1.98;;;19.70;95.10;;;;;;5058741;28;20064;-62
2023/06/27 07:51:59;;;;;;;9.80;1.60;;;19.70;95.30;;;;;;5069684;28;20048;-62
2023/06/27 07:54:26;;;;;;;6.50;1.42;;;19.70;95.60;;;;;;5034302;28;20045;-62
2023/06/27 07:56:54;;;;;;;6.50;1.55;;;19.80;95.70;;;;;;5074340;28;20036;-62
2023/06/27 07:59:20;;;;;;;5.15;1.45;;;19.90;95.90;;;;;;5056541;28;20089;-62
2023/06/27 08:01:46;;;;;;;6.13;1.20;;;20.00;95.60;;;;;;5070541;28;20036;-62
2023/06/27 08:04:12;;;;;;;4.90;1.38;;;20.00;95.10;;;;;;5080245;28;20055;-62
2023/06/27 08:06:41;;;;;;;5.32;1.17;;;20.10;94.40;;;;;;5046429;28;20051;-62
2023/06/27 08:09:07;;;;;;;7.50;1.63;;;20.00;94.90;;;;;;5071689;28;20040;-62
2023/06/27 08:11:33;;;;;;;8.32;1.70;;;19.90;95.30;;;;;;5086145;28;20488;-62
2023/06/27 08:13:59;;;;;;;5.30;1.63;;;20.10;95.50;;;;;;5077650;28;20044;-62
2023/06/27 08:16:24;;;;;;;6.50;1.20;;;20.10;94.10;;;;;;5084700;28;20064;-62
2023/06/27 08:18:53;;;;;;;5.47;1.40;;;20.10;94.50;;;;;;5089210;28;20036;-62
2023/06/27 08:21:19;;;;;;;5.40;1.95;;;20.00;94.90;;;;;;5070617;28;20044;-62
2023/06/27 08:23:45;;;;;;;4.50;1.30;;;20.00;94.90;;;;;;5088597;28;20036;-62
2023/06/27 08:26:15;;;;;;;4.55;1.35;;;20.10;94.50;;;;;;5066040;28;20040;-62
2023/06/27 08:28:42;;;;;;;6.05;1.45;;;20.20;94.60;;;;;;5080147;28;20110;-62
2023/06/27 08:31:07;;;;;;;6.10;1.48;;;20.30;94.80;;;;;;5090627;28;20356;-62
2023/06/27 08:33:33;;;;;;;4.63;1.17;;;20.50;94.90;;;;;;5063821;28;20110;-62
2023/06/27 08:35:59;;;;;;;6.72;1.20;;;20.60;94.10;;;;;;5069022;28;20115;-64
2023/06/27 08:38:27;;;;;;;5.03;1.65;;;20.60;93.50;;;;;;5085776;28;20603;-62
2023/06/27 08:40:55;;;;;;;4.25;1.45;;;20.50;94.00;;;;;;5090604;28;20074;-62
2023/06/27 08:43:21;;;;;;;7.10;1.77;;;20.60;93.80;;;;;;5062046;28;20041;-63
2023/06/27 08:45:48;;;;;;;6.05;1.60;;;20.50;93.40;;;;;;5039857;28;20052;-62
2023/06/27 08:48:16;;;;;;;7.63;1.85;;;20.40;92.60;;;;;;5070096;28;20052;-62
2023/06/27 08:50:43;;;;;;;6.32;1.30;;;20.40;92.90;;;;;;5064490;28;20051;-62
2023/06/27 08:53:14;;;;;;;4.38;1.38;;;20.50;93.30;;;;;;5070121;28;20663;-63
2023/06/27 08:55:55;;;;;;;4.93;1.98;;;20.60;92.70;;;;;;5089089;28;20100;-62
2023/06/27 08:58:26;;;;;;;3.70;1.10;;;20.60;93.10;;;;;;5067061;28;20102;-62
2023/06/27 09:00:53;;;;;;;6.05;1.38;;;20.50;92.70;;;;;;5073596;28;20056;-62
2023/06/27 09:03:20;;;;;;;6.18;1.48;;;20.50;92.40;;;;;;5092480;28;20093;-62
2023/06/27 09:05:47;;;;;;;5.22;1.40;;;20.50;93.00;;;;;;5087431;28;20029;-62
2023/06/27 09:08:13;;;;;;;4.43;1.17;;;20.50;93.10;;;;;;5080238;28;20051;-62
2023/06/27 09:10:44;;;;;;;6.18;1.35;;;20.40;93.50;;;;;;5084233;28;20032;-63
2023/06/27 09:13:10;;;;;;;4.63;1.55;;;20.60;93.50;;;;;;5052462;28;20100;-62
2023/06/27 09:15:36;;;;;;;4.47;1.60;;;20.60;93.20;;;;;;5084126;28;20028;-62
2023/06/27 09:18:02;;;;;;;5.30;1.08;;;20.70;92.80;;;;;;5068128;28;20029;-62
2023/06/27 09:20:28;;;;;;;7.35;1.83;;;20.70;92.20;;;;;;5061826;28;20051;-62
2023/06/27 09:22:57;;;;;;;3.63;1.60;;;20.70;92.60;;;;;;5070179;28;20051;-65
2023/06/27 09:25:24;;;;;;;5.00;1.10;;;20.90;92.60;;;;;;5040128;28;20102;-62
2023/06/27 09:27:51;;;;;;;9.13;1.40;;;21.10;92.30;;;;;;5072444;28;20483;-62
2023/06/27 09:30:17;;;;;;;4.07;1.25;;;20.90;91.80;;;;;;5082749;28;20085;-62
2023/06/27 09:32:57;;;;;;;4.55;1.55;;;20.70;91.30;;;;;;5073164;28;20040;-62
2023/06/27 09:35:23;;;;;;;5.75;1.23;;;20.60;91.50;;;;;;5089714;28;20119;-62
2023/06/27 09:37:50;;;;;;;6.50;1.25;;;20.70;92.10;;;;;;5069437;28;20123;-62
2023/06/27 09:40:25;;;;;;;5.63;1.30;;;20.90;92.20;;;;;;5097066;28;20151;-62
2023/06/27 09:42:55;;;;;;;5.25;1.45;;;21.00;92.00;;;;;;5051934;28;20083;-62
2023/06/27 09:45:29;;;;;;;5.90;1.50;;;21.10;92.30;;;;;;5085051;28;20379;-63
2023/06/27 09:47:55;;;;;;;4.93;1.30;;;21.20;91.90;;;;;;5088822;28;20517;-62
2023/06/27 09:50:28;;;;;;;7.90;1.80;;;21.10;92.10;;;;;;5091239;28;20047;-62
2023/06/27 09:52:59;;;;;;;5.15;1.42;;;21.10;91.30;;;;;;5083112;28;20044;-62
2023/06/27 09:55:25;;;;;;;5.07;1.58;;;21.00;91.40;;;;;;5093872;28;20043;-62
2023/06/27 09:57:52;;;;;;;6.03;1.30;;;20.80;91.40;;;;;;5093659;28;20093;-62
2023/06/27 10:00:22;;;;;;;4.07;1.15;;;20.80;91.60;;;;;;5062098;22;20047;-53
2023/06/27 10:02:52;;;;;;;4.68;1.20;;;20.90;91.70;;;;;;5062784;28;20045;-54
2023/06/27 10:05:22;;;;;;;7.47;1.58;;;20.80;91.20;;;;;;5055722;28;20057;-54
2023/06/27 10:07:52;;;;;;;5.32;1.33;;;20.70;91.60;;;;;;5045029;28;20072;-54
2023/06/27 10:10:23;;;;;;;3.15;1.33;;;20.80;91.40;;;;;;5048275;28;20041;-54
2023/06/27 10:12:49;;;;;;;5.22;1.38;;;21.00;91.80;;;;;;5036575;28;20746;-53
2023/06/27 10:15:17;;;;;;;4.80;1.30;;;21.10;91.70;;;;;;5044528;28;20114;-57
2023/06/27 10:17:44;;;;;;;6.00;1.42;;;21.30;91.70;;;;;;5047110;28;20056;-53
2023/06/27 10:20:11;;;;;;;4.22;1.30;;;21.50;91.30;;;;;;5056055;28;20147;-53
2023/06/27 10:22:42;;;;;;;8.55;1.70;;;21.60;90.30;;;;;;5043343;28;20044;-50
2023/06/27 10:25:12;;;;;;;3.15;1.15;;;21.40;90.30;;;;;;5044176;28;20052;-52
2023/06/27 10:27:39;;;;;;;6.25;1.80;;;21.20;89.40;;;;;;5044379;28;20126;-51
2023/06/27 10:30:20;;;;;;;5.38;1.42;;;21.20;90.50;;;;;;5039696;28;20573;-53
2023/06/27 10:32:48;;;;;;;8.27;1.45;;;21.50;90.80;;;;;;5040780;28;20037;-54
2023/06/27 10:35:26;;;;;;;6.40;1.30;;;21.90;90.30;;;;;;5045740;28;20526;-51
2023/06/27 10:38:13;;;;;;;5.75;1.55;;;21.90;89.70;;;;;;5046561;28;20128;-52
2023/06/27 10:41:09;;;;;;;7.88;1.70;;;22.20;90.20;;;;;;5046750;28;20048;-55
2023/06/27 10:43:48;;;;;;;5.68;1.73;;;22.20;90.10;;;;;;5035998;28;20060;-55
2023/06/27 10:46:17;;;;;;;4.60;1.40;;;22.30;89.70;;;;;;5064600;28;20422;-54
2023/06/27 10:48:47;;;;;;;5.18;1.70;;;22.20;90.00;;;;;;5041512;28;20028;-53
2023/06/27 10:51:19;;;;;;;3.45;1.15;;;21.90;89.80;;;;;;5041815;28;20076;-51
2023/06/27 10:54:08;;;;;;;8.52;1.50;;;21.80;90.10;;;;;;5035262;28;20570;-53
2023/06/27 10:56:34;;;;;;;5.68;1.42;;;21.80;90.30;;;;;;5048096;28;20234;-53
2023/06/27 10:59:02;;;;;;;5.45;1.30;;;21.90;89.60;;;;;;5041977;28;20048;-53
2023/06/27 11:01:29;;;;;;;4.90;1.58;;;22.10;90.00;;;;;;5049208;28;20400;-54
2023/06/27 11:03:57;;;;;;;4.15;1.38;;;22.00;89.40;;;;;;5024753;28;20048;-56
2023/06/27 11:06:40;;;;;;;4.80;1.40;;;22.10;89.90;;;;;;5045240;28;20242;-54
2023/06/27 11:09:08;;;;;;;7.95;1.60;;;22.10;90.10;;;;;;5040429;28;20025;-55
2023/06/27 11:11:38;;;;;;;3.25;1.20;;;21.50;89.60;;;;;;5043172;28;20364;-54
2023/06/27 11:14:08;;;;;;;3.75;1.48;;;21.50;90.00;;;;;;5035983;28;20037;-56
2023/06/27 11:16:35;;;;;;;2.42;1.10;;;21.50;88.30;;;;;;5040685;28;20110;-55
2023/06/27 11:19:02;;;;;;;4.45;1.10;;;21.60;89.00;;;;;;5014892;28;20594;-54
2023/06/27 11:21:29;;;;;;;3.90;1.15;;;21.80;89.70;;;;;;5041479;28;20040;-51
2023/06/27 11:23:58;;;;;;;7.65;1.50;;;21.90;87.70;;;;;;5043995;28;20052;-54
2023/06/27 11:26:25;;;;;;;5.65;1.83;;;21.90;88.40;;;;;;5041314;28;20073;-53
2023/06/27 11:28:51;;;;;;;4.68;1.58;;;22.10;89.40;;;;;;5012955;28;20052;-51
2023/06/27 11:31:17;;;;;;;6.00;1.75;;;22.20;89.10;;;;;;5038342;28;20037;-53
2023/06/27 11:33:43;;;;;;;3.22;1.33;;;22.00;89.90;;;;;;5026567;28;20068;-54
2023/06/27 11:36:09;;;;;;;4.18;1.45;;;21.90;84.80;;;;;;5026546;28;20045;-54
2023/06/27 11:38:36;;;;;;;7.45;1.92;;;21.90;86.90;;;;;;5045285;28;20041;-55
2023/06/27 11:41:11;;;;;;;3.15;1.10;;;21.70;87.40;;;;;;5039149;28;20060;-53
2023/06/27 11:43:37;;;;;;;4.50;1.58;;;22.00;88.00;;;;;;5043713;28;20032;-51
2023/06/27 11:46:03;;;;;;;5.65;1.45;;;22.20;86.60;;;;;;5041115;28;20055;-53
2023/06/27 11:48:28;;;;;;;7.35;1.63;;;22.50;84.40;;;;;;5021622;28;20487;-54
2023/06/27 11:50:55;;;;;;;5.15;1.15;;;22.10;85.10;;;;;;5028300;28;20407;-53
2023/06/27 11:53:24;;;;;;;7.40;1.48;;;21.80;84.20;;;;;;5032616;28;20076;-56
2023/06/27 11:55:50;;;;;;;6.18;1.35;;;21.80;85.90;;;;;;5044757;28;20043;-53
2023/06/27 11:58:16;;;;;;;7.85;1.63;;;22.30;85.40;;;;;;5050792;28;20041;-57
2023/06/27 12:00:42;;;;;;;5.57;1.15;;;22.60;84.70;;;;;;5040763;28;20041;-53
2023/06/27 12:03:08;;;;;;;4.60;1.38;;;22.60;84.20;;;;;;5043139;28;20416;-53
2023/06/27 12:05:43;;;;;;;3.50;1.10;;;22.80;84.40;;;;;;5042532;28;20049;-52
2023/06/27 12:08:09;;;;;;;4.82;1.20;;;22.70;80.40;;;;;;5022948;28;20061;-50
2023/06/27 12:10:50;;;;;;;4.75;1.35;;;22.70;82.50;;;;;;5024448;28;20041;-50
2023/06/27 12:13:19;;;;;;;5.38;1.27;;;22.50;82.20;;;;;;5039352;28;20045;-56
2023/06/27 12:15:46;;;;;;;4.10;1.60;;;22.70;81.60;;;;;;5033680;28;20099;-51
2023/06/27 12:18:24;;;;;;;2.83;1.27;;;22.90;82.10;;;;;;5037790;28;20053;-55
2023/06/27 12:20:52;;;;;;;3.40;0.95;;;22.70;81.70;;;;;;5040940;28;20525;-53
2023/06/27 12:23:18;;;;;;;4.65;1.30;;;22.70;79.10;;;;;;5033867;28;20123;-56
2023/06/27 12:25:44;;;;;;;3.70;1.20;;;22.20;77.80;;;;;;5040782;28;20152;-55
2023/06/27 12:28:10;;;;;;;3.38;0.90;;;22.30;80.40;;;;;;5039628;28;20171;-53
2023/06/27 12:30:36;;;;;;;3.75;1.35;;;22.60;80.30;;;;;;5020086;28;20045;-57
2023/06/27 12:33:02;;;;;;;3.72;1.40;;;22.70;81.30;;;;;;5039493;28;20258;-51
2023/06/27 12:35:29;;;;;;;5.57;1.63;;;22.40;82.80;;;;;;5041563;28;20108;-55
2023/06/27 12:37:55;;;;;;;4.63;1.20;;;22.20;82.90;;;;;;5043602;28;20335;-52
2023/06/27 12:40:22;;;;;;;5.00;1.63;;;22.10;83.20;;;;;;5022331;28;20140;-53
2023/06/27 12:42:49;;;;;;;3.88;0.90;;;22.10;83.00;;;;;;5040385;28;20037;-54
2023/06/27 12:45:15;;;;;;;6.40;1.35;;;21.80;82.00;;;;;;5044445;28;20040;-53
2023/06/27 12:47:43;;;;;;;8.07;1.48;;;21.70;82.00;;;;;;5047223;28;20048;-52